Amak Swan — OWKO2 — position and weather

sailwx.info

Track history (hours):
 
Tides and Currents Weather Stations Pressure Air Temp Water Temp Dewpoint Dewpoint Depression Visibility Wind Speed Wind Dir Waves Ship Positions

Amak Swan

Last reported at 2017-Oct-17 13:49 UTC. Time now 2017-Oct-18 07:47 UTC.
Position N 36°09' W 005°24'.

Length 113 m; draft 4.9 m.

Type: Ship (hazmat cat B). MMSI: 220016000.

Date/timePositionNaut miles runAvg speedWind from/ knotsBaromVisibWave heightAir tempDewpointWater temp
2017-Oct-17 13:49N 36°09' W 005°24'2 4.3
2017-Oct-17 13:25N 36°08' W 005°24'410.5
2017-Oct-17 13:00N 36°04' W 005°22'611.3
2017-Oct-17 12:30N 35°58' W 005°24'612.8
2017-Oct-17 12:00N 35°56' W 005°31'1011.0
2017-Oct-17 11:06N 35°55' W 005°43'110.6
2017-Oct-17 11:00N 35°54' W 005°45'8 0.2
2017-Oct-15 11:26N 35°58' W 005°35'612.5
2017-Oct-15 10:59N 35°59' W 005°29'611.7
2017-Oct-15 10:30N 36°01' W 005°22'611.1
2017-Oct-15 10:00N 36°03' W 005°16'21311.3
2017-Oct-14 15:04N 37°12' W 001°04'111.9
2017-Oct-14 15:00N 37°12' W 001°04'611.8
2017-Oct-14 14:30N 37°16' W 000°58'611.8
2017-Oct-14 14:00N 37°20' W 000°53'611.8
2017-Oct-14 13:30N 37°24' W 000°48'611.6
2017-Oct-14 12:57N 37°29' W 000°42'611.7
2017-Oct-14 12:28N 37°32' W 000°36'611.8
2017-Oct-14 12:00N 37°36' W 000°32'612.0
2017-Oct-14 11:30N 37°41' W 000°27'612.0
2017-Oct-14 11:00N 37°46' W 000°23'612.0
2017-Oct-14 10:30N 37°51' W 000°19'1112.0
2017-Oct-14 09:36N 38°00' W 000°11'112.1
2017-Oct-14 09:30N 38°01' W 000°10'1612.5
2017-Oct-14 08:15N 38°14' E 000°01'312.6
2017-Oct-14 08:00N 38°17' E 000°03'712.7
2017-Oct-14 07:28N 38°23' E 000°08'612.5
2017-Oct-14 07:00N 38°28' E 000°11'16111.8
2017-Oct-13 17:22N 40°40' E 002°11'  
2017-Oct-09 14:08N 41°18' E 002°11'2 4.8
2017-Oct-09 13:47N 41°18' E 002°13'  
Track history (hours):
 
Tides and Currents Weather Stations Pressure Air Temp Water Temp Dewpoint Dewpoint Depression Visibility Wind Speed Wind Dir Waves Ship Positions

Amak Swan

Last reported at 2017-Oct-17 13:49 UTC. Time now 2017-Oct-18 07:47 UTC.
Position N 36°09' W 005°24'.

Length 113 m; draft 4.9 m.

Type: Ship (hazmat cat B). MMSI: 220016000.

Date/timePositionNaut miles runAvg speedWind from/ knotsBaromVisibWave heightAir tempDewpointWater temp
2017-Oct-17 13:49N 36°09' W 005°24'2 4.3
2017-Oct-17 13:25N 36°08' W 005°24'410.5
2017-Oct-17 13:00N 36°04' W 005°22'611.3
2017-Oct-17 12:30N 35°58' W 005°24'612.8
2017-Oct-17 12:00N 35°56' W 005°31'1011.0
2017-Oct-17 11:06N 35°55' W 005°43'110.6
2017-Oct-17 11:00N 35°54' W 005°45'8 0.2
2017-Oct-15 11:26N 35°58' W 005°35'612.5
2017-Oct-15 10:59N 35°59' W 005°29'611.7
2017-Oct-15 10:30N 36°01' W 005°22'611.1
2017-Oct-15 10:00N 36°03' W 005°16'21311.3
2017-Oct-14 15:04N 37°12' W 001°04'111.9
2017-Oct-14 15:00N 37°12' W 001°04'611.8
2017-Oct-14 14:30N 37°16' W 000°58'611.8
2017-Oct-14 14:00N 37°20' W 000°53'611.8
2017-Oct-14 13:30N 37°24' W 000°48'611.6
2017-Oct-14 12:57N 37°29' W 000°42'611.7
2017-Oct-14 12:28N 37°32' W 000°36'611.8
2017-Oct-14 12:00N 37°36' W 000°32'612.0
2017-Oct-14 11:30N 37°41' W 000°27'612.0
2017-Oct-14 11:00N 37°46' W 000°23'612.0
2017-Oct-14 10:30N 37°51' W 000°19'1112.0
2017-Oct-14 09:36N 38°00' W 000°11'112.1
2017-Oct-14 09:30N 38°01' W 000°10'1612.5
2017-Oct-14 08:15N 38°14' E 000°01'312.6
2017-Oct-14 08:00N 38°17' E 000°03'712.7
2017-Oct-14 07:28N 38°23' E 000°08'612.5
2017-Oct-14 07:00N 38°28' E 000°11'16111.8
2017-Oct-13 17:22N 40°40' E 002°11'  
2017-Oct-09 14:08N 41°18' E 002°11'2 4.8
2017-Oct-09 13:47N 41°18' E 002°13'  

Dump ship's entire track history